To NAV CANADA Home Page Login to a new session Search on AWWS site Feedback and Comments Disclaimer Vers la page française équivalente Tips FAQ What's new on the site To the Forecasts and Observations / NOTAM section To "File a Flight Plan" website Publications and other links Update of the User's profile FIC Telephone Numbers My Weather Data Folder Route Weather Data Regional Weather Data Local Weather Data To the Forecasts and Observations / NOTAM section
Request Generated 02/23/2017 at 20:45:36 UTC . Weather information available at that time is displayed.

METAR/TAF

GRANDE PRAIRIE/AB    

METAR CYQU 232000Z 22004KT 170V260 20SM BKN065 M05/M08 A3004 RMK SC7
SLP218=
METAR CYQU 231900Z 22004KT 20SM OVC072 M05/M09 A3004 RMK AC8 SLP220=
METAR CYQU 231800Z VRB02KT 20SM BKN074 M06/M10 A3005 RMK AC7 SLP225=

TAF CYQU 231842Z 2319/2407 VRB03KT P6SM BKN070
BECMG 2320/2322 31007KT
FM240300 32010KT P6SM BKN050
FM240500 33015KT 5SM -SN SCT012 OVC030 TEMPO 2405/2407 11/2SM -SN
VV012
RMK NXT FCST BY 240100Z=
Your time UTC time
Weather data provided by Environment Canada and NAV CANADA